createdAt,value
2023-04-18T00:00:41.739Z,26.71
2023-04-18T00:01:41.835Z,28.89
2023-04-18T00:02:41.982Z,27.40
2023-04-18T00:03:42.108Z,29.63
2023-04-18T00:04:42.026Z,27.56
2023-04-18T00:05:42.055Z,30.04
2023-04-18T00:06:42.124Z,29.47
2023-04-18T00:07:42.184Z,29.98
2023-04-18T00:08:42.248Z,29.12
2023-04-18T00:09:42.331Z,28.00
2023-04-18T00:10:42.448Z,31.24
2023-04-18T00:11:42.444Z,29.21
2023-04-18T00:12:42.497Z,29.58
2023-04-18T00:13:42.559Z,27.88
2023-04-18T00:14:42.627Z,28.95
2023-04-18T00:15:42.689Z,28.92
2023-04-18T00:16:42.769Z,26.73
2023-04-18T00:17:42.848Z,30.48
2023-04-18T00:18:42.876Z,27.18
2023-04-18T00:19:42.947Z,30.09
2023-04-18T00:20:43.011Z,29.61
2023-04-18T00:21:43.070Z,30.47
2023-04-18T00:22:43.137Z,31.73
2023-04-18T00:23:43.247Z,28.77
2023-04-18T00:24:43.275Z,29.88
2023-04-18T00:25:43.339Z,32.27
2023-04-18T00:26:43.402Z,30.19
2023-04-18T00:27:43.464Z,26.28
2023-04-18T00:28:43.531Z,26.00
2023-04-18T00:29:43.598Z,29.93
2023-04-18T00:30:43.701Z,30.38
2023-04-18T00:31:43.727Z,28.86
2023-04-18T00:32:43.874Z,29.73
2023-04-18T00:33:43.858Z,30.52
2023-04-18T00:34:43.934Z,32.74
2023-04-18T00:35:44.004Z,30.87
2023-04-18T00:36:44.068Z,31.84
2023-04-18T00:37:44.143Z,29.37
2023-04-18T00:38:44.211Z,30.34
2023-04-18T00:39:45.039Z,29.29
2023-04-18T00:40:44.389Z,29.09
2023-04-18T00:41:44.416Z,27.84
2023-04-18T00:42:44.481Z,29.60
2023-04-18T00:43:44.563Z,30.03
2023-04-18T00:44:44.617Z,30.78
2023-04-18T00:45:44.729Z,28.89
2023-04-18T00:46:44.749Z,27.93
2023-04-18T00:47:44.880Z,29.10
2023-04-18T00:48:44.875Z,25.19
2023-04-18T00:49:44.938Z,29.71
2023-04-18T00:50:45.003Z,29.65
2023-04-18T00:51:45.079Z,29.78
2023-04-18T00:52:45.148Z,28.78
2023-04-18T00:53:45.210Z,29.26
2023-04-18T00:54:45.269Z,28.47
2023-04-18T00:55:45.350Z,29.76
2023-04-18T00:56:45.407Z,28.86
2023-04-18T00:57:45.480Z,30.19
2023-04-18T00:58:45.556Z,26.34
2023-04-18T00:59:45.608Z,27.86
2023-04-18T01:00:45.691Z,30.65
2023-04-18T01:01:45.780Z,28.17
2023-04-18T01:02:45.885Z,30.72
2023-04-18T01:03:45.988Z,31.18
2023-04-18T01:04:45.953Z,29.46
2023-04-18T01:05:46.021Z,30.44
2023-04-18T01:06:46.098Z,33.94
2023-04-18T01:07:46.161Z,32.48
2023-04-18T01:08:46.229Z,30.22
2023-04-18T01:09:46.301Z,28.28
2023-04-18T01:10:46.370Z,29.33
2023-04-18T01:11:46.431Z,30.54
2023-04-18T01:12:46.545Z,31.87
2023-04-18T01:13:46.567Z,30.32
2023-04-18T01:14:46.645Z,30.06
2023-04-18T01:15:46.753Z,30.99
2023-04-18T01:16:46.774Z,29.03
2023-04-18T01:17:46.895Z,31.05
2023-04-18T01:18:46.909Z,30.06
2023-04-18T01:19:46.973Z,29.47
2023-04-18T01:20:47.045Z,30.66
2023-04-18T01:21:47.109Z,31.47
2023-04-18T01:22:47.175Z,28.18
2023-04-18T01:23:47.244Z,28.42
2023-04-18T01:24:47.324Z,28.08
2023-04-18T01:25:47.418Z,28.48
2023-04-18T01:26:47.463Z,29.53
2023-04-18T01:27:47.512Z,30.27
2023-04-18T01:28:47.587Z,25.92
2023-04-18T01:29:47.644Z,30.63
2023-04-18T01:30:47.713Z,28.78
2023-04-18T01:31:47.800Z,29.83
2023-04-18T01:32:47.918Z,30.12
2023-04-18T01:33:47.921Z,27.33
2023-04-18T01:34:47.993Z,29.84
2023-04-18T01:35:48.078Z,30.86
2023-04-18T01:36:48.135Z,30.36
2023-04-18T01:37:48.207Z,27.83
2023-04-18T01:38:48.274Z,30.28
2023-04-18T01:39:48.352Z,31.43
2023-04-18T01:40:48.421Z,28.61
2023-04-18T01:41:48.487Z,32.51
2023-04-18T01:42:48.563Z,29.34
2023-04-18T01:43:48.627Z,29.08
2023-04-18T01:44:48.687Z,29.31
2023-04-18T01:45:48.753Z,29.51
2023-04-18T01:46:48.876Z,30.22
2023-04-18T01:47:48.976Z,31.29
2023-04-18T01:48:48.977Z,29.66
2023-04-18T01:49:49.047Z,27.93
2023-04-18T01:50:49.102Z,29.40
2023-04-18T01:51:49.176Z,27.08
2023-04-18T01:52:49.249Z,29.72
2023-04-18T01:53:49.319Z,27.70
2023-04-18T01:54:49.390Z,30.02
2023-04-18T01:55:49.475Z,29.03
2023-04-18T01:56:49.532Z,31.98
2023-04-18T01:57:49.600Z,27.99
2023-04-18T01:58:49.666Z,28.66
2023-04-18T01:59:49.742Z,32.06
2023-04-18T02:00:50.588Z,30.01
2023-04-18T02:01:49.902Z,29.59
2023-04-18T02:02:49.998Z,29.83
2023-04-18T02:03:50.187Z,29.49
2023-04-18T02:04:50.076Z,28.68
2023-04-18T02:05:50.144Z,26.97
2023-04-18T02:06:50.220Z,29.67
2023-04-18T02:07:50.353Z,28.32
2023-04-18T02:08:50.358Z,29.49
2023-04-18T02:09:50.430Z,29.15
2023-04-18T02:10:50.500Z,29.81
2023-04-18T02:11:50.571Z,28.68
2023-04-18T02:12:50.644Z,29.25
2023-04-18T02:13:50.718Z,30.26
2023-04-18T02:14:50.792Z,28.93
2023-04-18T02:15:50.872Z,31.90
2023-04-18T02:16:51.073Z,30.24
2023-04-18T02:17:51.021Z,28.46
2023-04-18T02:18:51.077Z,29.77
2023-04-18T02:19:51.149Z,30.77
2023-04-18T02:20:51.232Z,30.01
2023-04-18T02:21:51.302Z,29.57
2023-04-18T02:22:51.373Z,27.38
2023-04-18T02:23:51.436Z,28.35
2023-04-18T02:24:51.515Z,29.26
2023-04-18T02:25:51.586Z,29.56
2023-04-18T02:26:51.651Z,28.95
2023-04-18T02:27:51.719Z,28.83
2023-04-18T02:28:51.812Z,29.99
2023-04-18T02:29:51.871Z,29.68
2023-04-18T02:30:51.957Z,30.68
2023-04-18T02:31:52.025Z,31.70
2023-04-18T02:32:52.158Z,30.97
2023-04-18T02:33:52.151Z,29.08
2023-04-18T02:34:52.223Z,27.92
2023-04-18T02:35:52.303Z,26.51
2023-04-18T02:36:52.358Z,28.56
2023-04-18T02:37:52.438Z,26.67
2023-04-18T02:38:52.512Z,29.77
2023-04-18T02:39:52.587Z,28.68
2023-04-18T02:40:52.681Z,26.96
2023-04-18T02:41:52.741Z,28.52
2023-04-18T02:42:52.814Z,27.04
2023-04-18T02:43:52.885Z,29.97
2023-04-18T02:44:52.959Z,28.90
2023-04-18T02:45:53.072Z,29.77
2023-04-18T02:46:53.098Z,28.01
2023-04-18T02:47:56.044Z,28.00
2023-04-18T02:48:53.166Z,32.57
2023-04-18T02:49:53.182Z,29.75
2023-04-18T02:50:53.195Z,28.72
2023-04-18T02:51:53.186Z,30.01
2023-04-18T02:52:53.208Z,31.90
2023-04-18T02:53:53.221Z,31.88
2023-04-18T02:54:53.232Z,28.46
2023-04-18T02:55:53.251Z,25.03
2023-04-18T02:56:53.259Z,26.85
2023-04-18T02:57:53.269Z,28.36
2023-04-18T02:58:53.296Z,31.64
2023-04-18T02:59:53.284Z,28.61
2023-04-18T03:00:53.305Z,28.28
2023-04-18T03:01:53.337Z,30.18
2023-04-18T03:02:53.548Z,31.21
2023-04-18T03:03:53.320Z,28.45
2023-04-18T03:04:53.345Z,28.87
2023-04-18T03:05:53.346Z,25.83
2023-04-18T03:06:53.361Z,28.76
2023-04-18T03:07:53.380Z,27.22
2023-04-18T03:08:53.407Z,28.98
2023-04-18T03:09:53.428Z,28.23
2023-04-18T03:10:55.111Z,29.71
2023-04-18T03:11:53.439Z,31.73
2023-04-18T03:12:53.432Z,31.56
2023-04-18T03:13:53.435Z,31.58
2023-04-18T03:14:53.447Z,27.71
2023-04-18T03:15:53.484Z,30.01
2023-04-18T03:16:55.407Z,30.20
2023-04-18T03:17:53.496Z,30.36
2023-04-18T03:18:53.479Z,30.29
2023-04-18T03:19:53.499Z,27.61
2023-04-18T03:20:53.510Z,29.86
2023-04-18T03:21:53.517Z,30.26
2023-04-18T03:22:53.544Z,29.42
2023-04-18T03:23:53.614Z,27.61
2023-04-18T03:24:53.685Z,29.97
2023-04-18T03:25:53.747Z,25.00
2023-04-18T03:26:53.804Z,30.77
2023-04-18T03:27:53.884Z,26.98
2023-04-18T03:28:53.960Z,28.32
2023-04-18T03:29:54.023Z,28.20
2023-04-18T03:30:54.137Z,27.42
2023-04-18T03:31:54.161Z,28.40
2023-04-18T03:32:54.250Z,30.67
2023-04-18T03:33:54.284Z,30.35
2023-04-18T03:34:54.345Z,26.57
2023-04-18T03:35:54.422Z,28.92
2023-04-18T03:36:54.484Z,27.89
2023-04-18T03:37:54.556Z,30.90
2023-04-18T03:38:54.631Z,28.17
2023-04-18T03:39:54.707Z,29.12
2023-04-18T03:40:54.759Z,30.18
2023-04-18T03:41:54.842Z,29.17
2023-04-18T03:42:54.903Z,27.65
2023-04-18T03:43:54.970Z,30.64
2023-04-18T03:44:55.042Z,31.43
2023-04-18T03:45:55.132Z,29.22
2023-04-18T03:46:55.175Z,27.44
2023-04-18T03:47:55.276Z,28.28
2023-04-18T03:48:55.315Z,31.85
2023-04-18T03:49:55.382Z,30.67
2023-04-18T03:50:55.444Z,29.35
2023-04-18T03:51:55.518Z,28.61
2023-04-18T03:52:55.596Z,30.36
2023-04-18T03:53:55.652Z,30.82
2023-04-18T03:54:55.731Z,27.71
2023-04-18T03:55:55.787Z,31.16
2023-04-18T03:56:55.858Z,28.18
2023-04-18T03:57:55.922Z,26.08
2023-04-18T03:58:56.003Z,30.46
2023-04-18T03:59:56.073Z,29.05
2023-04-18T04:00:56.135Z,29.13
2023-04-18T04:01:56.290Z,27.99
2023-04-18T04:02:56.554Z,27.98
2023-04-18T04:03:56.403Z,28.97
2023-04-18T04:04:56.451Z,28.08
2023-04-18T04:05:56.491Z,26.48
2023-04-18T04:06:56.571Z,28.19
2023-04-18T04:07:56.611Z,30.55
2023-04-18T04:08:56.692Z,27.99
2023-04-18T04:09:56.766Z,28.35
2023-04-18T04:10:56.833Z,28.64
2023-04-18T04:11:56.907Z,30.76
2023-04-18T04:12:56.976Z,29.91
2023-04-18T04:13:57.041Z,32.80
2023-04-18T04:14:57.107Z,30.53
2023-04-18T04:15:57.244Z,28.45
2023-04-18T04:16:57.238Z,28.60
2023-04-18T04:17:57.361Z,28.76
2023-04-18T04:18:57.384Z,30.40
2023-04-18T04:19:57.438Z,31.67
2023-04-18T04:20:57.504Z,27.49
2023-04-18T04:21:57.594Z,27.81
2023-04-18T04:22:57.659Z,29.89
2023-04-18T04:23:57.719Z,25.04
2023-04-18T04:24:57.846Z,30.05
2023-04-18T04:25:57.864Z,29.35
2023-04-18T04:26:57.925Z,28.52
2023-04-18T04:27:57.998Z,29.40
2023-04-18T04:28:58.060Z,29.28
2023-04-18T04:29:58.139Z,27.31
2023-04-18T04:30:58.219Z,28.11
2023-04-18T04:31:58.298Z,29.37
2023-04-18T04:32:58.420Z,27.90
2023-04-18T04:33:58.418Z,31.36
2023-04-18T04:34:58.486Z,29.63
2023-04-18T04:35:58.554Z,26.92
2023-04-18T04:36:58.627Z,29.48
2023-04-18T04:37:58.693Z,28.27
2023-04-18T04:38:58.765Z,29.17
2023-04-18T04:39:58.833Z,29.53
2023-04-18T04:40:58.906Z,30.76
2023-04-18T04:41:58.977Z,27.57
2023-04-18T04:42:59.038Z,25.85
2023-04-18T04:43:59.108Z,27.45
2023-04-18T04:44:59.229Z,30.14
2023-04-18T04:45:59.252Z,31.11
2023-04-18T04:46:59.319Z,26.93
2023-04-18T04:47:59.452Z,27.47
2023-04-18T04:48:59.442Z,31.36
2023-04-18T04:49:59.513Z,28.31
2023-04-18T04:50:59.598Z,29.48
2023-04-18T04:52:01.403Z,29.12
2023-04-18T04:52:59.727Z,30.96
2023-04-18T04:53:59.793Z,29.60
2023-04-18T04:54:59.861Z,29.16
2023-04-18T04:55:59.920Z,31.81
2023-04-18T04:57:00.021Z,28.64
2023-04-18T04:58:00.053Z,29.95
2023-04-18T04:59:00.117Z,32.23
2023-04-18T05:00:00.208Z,27.87
2023-04-18T05:01:00.289Z,29.20
2023-04-18T05:02:00.353Z,29.97
2023-04-18T05:03:00.490Z,32.31
2023-04-18T05:04:00.488Z,31.34
2023-04-18T05:05:00.508Z,29.35
2023-04-18T05:06:00.558Z,27.41
2023-04-18T05:07:00.638Z,29.81
2023-04-18T05:08:00.715Z,30.70
2023-04-18T05:09:00.777Z,30.64
2023-04-18T05:10:00.860Z,28.58
2023-04-18T05:11:00.912Z,28.35
2023-04-18T05:12:00.969Z,29.04
2023-04-18T05:13:01.031Z,27.82
2023-04-18T05:14:01.094Z,31.24
2023-04-18T05:15:01.167Z,29.79
2023-04-18T05:16:01.287Z,29.87
2023-04-18T05:17:01.420Z,28.00
2023-04-18T05:18:01.439Z,29.18
2023-04-18T05:19:01.468Z,29.73
2023-04-18T05:20:01.534Z,28.04
2023-04-18T05:21:01.627Z,26.74
2023-04-18T05:22:01.639Z,30.17
2023-04-18T05:23:01.730Z,31.15
2023-04-18T05:24:01.776Z,32.99
2023-04-18T05:25:01.922Z,37.18
2023-04-18T05:26:01.911Z,41.51
2023-04-18T05:27:02.004Z,45.96
2023-04-18T05:28:02.047Z,55.15
2023-04-18T05:29:02.183Z,65.38
2023-04-18T05:30:02.172Z,71.19
2023-04-18T05:31:02.291Z,76.93
2023-04-18T05:32:02.281Z,90.01
2023-04-18T05:33:02.415Z,103.05
2023-04-18T05:34:02.397Z,112.61
2023-04-18T05:35:02.450Z,120.77
2023-04-18T05:36:02.503Z,127.93
2023-04-18T05:37:02.543Z,137.86
2023-04-18T05:38:02.584Z,151.16
2023-04-18T05:39:02.626Z,159.75
2023-04-18T05:40:02.844Z,169.51
2023-04-18T05:41:02.717Z,181.67
2023-04-18T05:42:03.640Z,192.53
2023-04-18T05:43:02.768Z,199.23
2023-04-18T05:44:05.697Z,208.61
2023-04-18T05:45:02.823Z,214.78
2023-04-18T05:46:02.859Z,221.58
2023-04-18T05:47:02.825Z,229.26
2023-04-18T05:48:02.892Z,235.14
2023-04-18T05:49:02.845Z,240.96
2023-04-18T05:50:02.870Z,245.46
2023-04-18T05:51:02.868Z,249.92
2023-04-18T05:52:02.896Z,246.45
2023-04-18T05:53:02.887Z,249.60
2023-04-18T05:54:02.892Z,245.69
2023-04-18T05:55:02.927Z,249.09
2023-04-18T05:56:02.918Z,239.90
2023-04-18T05:57:04.505Z,162.51
2023-04-18T05:58:02.932Z,113.10
2023-04-18T05:59:02.940Z,126.69
2023-04-18T06:00:02.957Z,169.21
2023-04-18T06:01:02.977Z,192.48
2023-04-18T06:02:03.024Z,212.96
2023-04-18T06:03:03.136Z,216.48
2023-04-18T06:04:03.238Z,223.75
2023-04-18T06:05:03.308Z,229.34
2023-04-18T06:06:03.109Z,232.54
2023-04-18T06:07:03.020Z,240.20
2023-04-18T06:08:03.032Z,242.59
2023-04-18T06:09:03.040Z,246.59
2023-04-18T06:10:03.056Z,248.47
2023-04-18T06:11:03.042Z,249.37
2023-04-18T06:12:03.047Z,248.76
2023-04-18T06:13:03.046Z,248.39
2023-04-18T06:14:03.059Z,250.52
2023-04-18T06:15:03.057Z,250.00
2023-04-18T06:16:03.088Z,250.00
2023-04-18T06:17:03.062Z,249.10
2023-04-18T06:18:03.151Z,248.69
2023-04-18T06:19:03.050Z,250.00
2023-04-18T06:20:03.036Z,249.79
2023-04-18T06:21:03.048Z,249.88
2023-04-18T06:22:03.034Z,246.96
2023-04-18T06:23:03.028Z,246.06
2023-04-18T06:24:03.053Z,249.77
2023-04-18T06:25:03.040Z,249.19
2023-04-18T06:26:03.050Z,249.77
2023-04-18T06:27:03.663Z,241.94
2023-04-18T06:28:03.078Z,157.59
2023-04-18T06:29:03.088Z,93.97
2023-04-18T06:30:03.128Z,63.76
2023-04-18T06:31:03.162Z,61.15
2023-04-18T06:32:03.264Z,59.62
2023-04-18T06:33:03.885Z,61.48
2023-04-18T06:34:03.274Z,63.76
2023-04-18T06:35:03.324Z,63.28
2023-04-18T06:36:03.343Z,67.62
2023-04-18T06:37:03.430Z,74.04
2023-04-18T06:38:03.505Z,81.72
2023-04-18T06:39:03.601Z,82.62
2023-04-18T06:40:03.664Z,85.76
2023-04-18T06:41:03.736Z,95.36
2023-04-18T06:42:03.790Z,96.20
2023-04-18T06:43:04.586Z,97.96
2023-04-18T06:44:04.616Z,98.88
2023-04-18T06:45:03.955Z,104.02
2023-04-18T06:46:04.029Z,109.23
2023-04-18T06:47:04.027Z,112.40
2023-04-18T06:48:04.202Z,118.86
2023-04-18T06:49:04.089Z,123.80
2023-04-18T06:50:04.140Z,128.42
2023-04-18T06:51:04.137Z,130.53
2023-04-18T06:52:04.167Z,138.69
2023-04-18T06:53:04.181Z,143.61
2023-04-18T06:54:04.196Z,148.62
2023-04-18T06:55:04.220Z,153.74
2023-04-18T06:56:04.235Z,157.90
2023-04-18T06:57:04.236Z,161.74
2023-04-18T06:58:04.238Z,166.98
2023-04-18T06:59:04.267Z,172.15
2023-04-18T07:00:04.250Z,176.92
2023-04-18T07:01:04.293Z,182.63
2023-04-18T07:02:04.346Z,186.20
2023-04-18T07:03:04.464Z,191.46
2023-04-18T07:04:04.357Z,194.39
2023-04-18T07:05:04.704Z,200.66
2023-04-18T07:06:04.343Z,203.48
2023-04-18T07:07:04.346Z,208.44
2023-04-18T07:08:04.362Z,212.05
2023-04-18T07:09:04.412Z,216.18
2023-04-18T07:10:04.477Z,217.45
2023-04-18T07:11:04.513Z,223.72
2023-04-18T07:12:04.564Z,226.15
2023-04-18T07:13:04.618Z,228.73
2023-04-18T07:14:04.698Z,234.44
2023-04-18T07:15:04.742Z,236.26
2023-04-18T07:16:04.793Z,242.97
2023-04-18T07:17:04.903Z,246.53
2023-04-18T07:18:04.913Z,248.64
2023-04-18T07:19:04.929Z,248.41
2023-04-18T07:20:04.964Z,248.61
2023-04-18T07:21:05.015Z,247.30
2023-04-18T07:22:05.059Z,246.92
2023-04-18T07:23:05.686Z,244.79
2023-04-18T07:24:05.680Z,245.65
2023-04-18T07:25:05.248Z,245.56
2023-04-18T07:26:05.263Z,244.52
2023-04-18T07:27:05.316Z,245.79
2023-04-18T07:28:06.103Z,245.62
2023-04-18T07:29:06.110Z,243.79
2023-04-18T07:30:05.521Z,245.16
2023-04-18T07:31:05.559Z,243.19
2023-04-18T07:32:06.903Z,239.84
2023-04-18T07:33:05.904Z,239.76
2023-04-18T07:34:06.181Z,238.89
2023-04-18T07:35:05.927Z,237.05
2023-04-18T07:36:05.988Z,235.88
2023-04-18T07:37:06.138Z,234.51
2023-04-18T07:38:06.085Z,235.38
2023-04-18T07:39:06.140Z,233.20
2023-04-18T07:40:06.186Z,231.10
2023-04-18T07:41:06.242Z,230.14
2023-04-18T07:42:06.333Z,229.79
2023-04-18T07:43:06.322Z,229.13
2023-04-18T07:44:06.380Z,228.39
2023-04-18T07:45:06.444Z,227.36
2023-04-18T07:46:06.529Z,227.29
2023-04-18T07:47:06.534Z,226.29
2023-04-18T07:48:06.618Z,226.07
2023-04-18T07:49:06.672Z,224.42
2023-04-18T07:50:06.709Z,223.30
2023-04-18T07:51:06.771Z,222.72
2023-04-18T07:52:06.882Z,226.07
2023-04-18T07:53:06.921Z,223.26
2023-04-18T07:54:06.933Z,223.82
2023-04-18T07:55:06.978Z,224.24
2023-04-18T07:56:07.041Z,224.87
2023-04-18T07:57:07.096Z,223.84
2023-04-18T07:58:07.149Z,226.13
2023-04-18T07:59:07.232Z,225.90
2023-04-18T08:00:07.323Z,224.98
2023-04-18T08:01:07.326Z,224.97
2023-04-18T08:02:07.420Z,225.87
2023-04-18T08:03:07.685Z,225.23
2023-04-18T08:04:07.741Z,224.27
2023-04-18T08:05:07.698Z,225.00
2023-04-18T08:06:07.624Z,225.13
2023-04-18T08:07:07.656Z,225.67
2023-04-18T08:08:07.684Z,228.34
2023-04-18T08:09:07.751Z,226.00
2023-04-18T08:10:07.796Z,225.69
2023-04-18T08:11:07.855Z,221.72
2023-04-18T08:12:07.900Z,222.46
2023-04-18T08:13:07.947Z,223.81
2023-04-18T08:14:08.000Z,197.41
2023-04-18T08:15:08.005Z,129.13
2023-04-18T08:16:08.068Z,75.33
2023-04-18T08:17:08.030Z,34.67
2023-04-18T08:18:08.069Z,14.88
2023-04-18T08:19:08.086Z,0.27
2023-04-18T08:20:08.206Z,6.36
2023-04-18T08:21:08.176Z,29.25
2023-04-18T08:22:08.205Z,29.60
2023-04-18T08:23:10.530Z,31.66
2023-04-18T08:24:08.185Z,29.80
2023-04-18T08:25:08.196Z,29.51
2023-04-18T08:26:08.191Z,29.19
2023-04-18T08:27:08.188Z,11.85
2023-04-18T08:28:09.193Z,18.89
2023-04-18T08:29:08.717Z,31.17
2023-04-18T08:30:08.175Z,42.80
2023-04-18T08:31:08.219Z,60.54
2023-04-18T08:32:09.264Z,81.94
2023-04-18T08:33:08.230Z,88.32
2023-04-18T08:34:08.173Z,92.42
2023-04-18T08:35:08.170Z,95.30
2023-04-18T08:36:08.170Z,98.61
2023-04-18T08:37:08.164Z,103.04
2023-04-18T08:38:08.148Z,108.32
2023-04-18T08:39:08.144Z,113.60
2023-04-18T08:40:08.145Z,118.85
2023-04-18T08:41:08.280Z,123.22
2023-04-18T08:42:08.126Z,126.52
2023-04-18T08:43:08.129Z,132.00
2023-04-18T08:44:08.131Z,133.82
2023-04-18T08:45:08.121Z,139.97
2023-04-18T08:46:08.148Z,140.99
2023-04-18T08:47:08.097Z,143.78
2023-04-18T08:48:08.168Z,147.33
2023-04-18T08:49:09.676Z,148.84
2023-04-18T08:50:08.146Z,152.04
2023-04-18T08:51:08.139Z,154.76
2023-04-18T08:52:08.113Z,157.57
2023-04-18T08:53:08.097Z,159.36
2023-04-18T08:54:08.082Z,161.40
2023-04-18T08:55:08.101Z,163.79
2023-04-18T08:56:08.071Z,166.43
2023-04-18T08:57:08.053Z,167.92
2023-04-18T08:58:08.105Z,173.29
2023-04-18T08:59:08.025Z,176.27
2023-04-18T09:00:08.044Z,179.98
2023-04-18T09:01:08.102Z,183.76
2023-04-18T09:02:08.056Z,182.99
2023-04-18T09:03:08.098Z,185.65
2023-04-18T09:04:08.007Z,186.45
2023-04-18T09:05:07.968Z,185.30
2023-04-18T09:06:07.984Z,186.82
2023-04-18T09:07:07.941Z,187.21
2023-04-18T09:08:07.914Z,190.13
2023-04-18T09:09:07.911Z,190.73
2023-04-18T09:10:07.906Z,194.55
2023-04-18T09:11:07.878Z,193.78
2023-04-18T09:12:07.872Z,195.11
2023-04-18T09:13:07.885Z,195.04
2023-04-18T09:14:07.861Z,196.16
2023-04-18T09:15:07.834Z,195.79
2023-04-18T09:16:07.841Z,197.87
2023-04-18T09:17:07.900Z,197.82
2023-04-18T09:18:07.833Z,191.37
2023-04-18T09:19:07.788Z,191.22
2023-04-18T09:20:07.780Z,194.50
2023-04-18T09:21:07.777Z,193.64
2023-04-18T09:22:07.758Z,195.49
2023-04-18T09:23:07.752Z,191.15
2023-04-18T09:24:07.740Z,187.76
2023-04-18T09:25:08.652Z,185.20
2023-04-18T09:26:07.709Z,178.64
2023-04-18T09:27:07.687Z,175.06
2023-04-18T09:28:07.688Z,174.66
2023-04-18T09:29:07.668Z,171.41
2023-04-18T09:30:07.690Z,166.53
2023-04-18T09:31:07.678Z,164.67
2023-04-18T09:32:07.638Z,166.44
2023-04-18T09:33:07.756Z,162.55
2023-04-18T09:34:07.628Z,160.98
2023-04-18T09:35:07.640Z,159.07
2023-04-18T09:36:07.609Z,157.90
2023-04-18T09:37:07.664Z,153.70
2023-04-18T09:38:07.618Z,152.54
2023-04-18T09:39:07.677Z,150.97
2023-04-18T09:40:07.724Z,152.96
2023-04-18T09:41:07.803Z,151.13
2023-04-18T09:42:07.851Z,146.93
2023-04-18T09:43:07.883Z,143.01
2023-04-18T09:44:07.937Z,141.18
2023-04-18T09:45:08.082Z,142.33
2023-04-18T09:46:08.082Z,139.65
2023-04-18T09:47:08.098Z,140.88
2023-04-18T09:48:08.199Z,137.50
2023-04-18T09:49:10.432Z,134.26
2023-04-18T09:50:08.260Z,134.89
2023-04-18T09:51:08.183Z,132.87
2023-04-18T09:52:08.166Z,133.26
2023-04-18T09:53:08.139Z,132.95
2023-04-18T09:54:08.126Z,129.53
2023-04-18T09:55:08.120Z,127.85
2023-04-18T09:56:08.109Z,127.51
2023-04-18T09:57:08.106Z,125.62
2023-04-18T09:58:08.766Z,122.54
2023-04-18T09:59:08.095Z,121.53
2023-04-18T10:00:08.076Z,121.14
2023-04-18T10:01:08.505Z,123.00
2023-04-18T10:02:08.365Z,118.23
2023-04-18T10:03:08.244Z,114.82
2023-04-18T10:04:08.164Z,115.33
2023-04-18T10:05:08.138Z,111.28
2023-04-18T10:06:08.082Z,100.61
2023-04-18T10:07:08.034Z,96.33
2023-04-18T10:08:08.028Z,95.58
2023-04-18T10:09:08.016Z,90.55
2023-04-18T10:10:08.029Z,91.34
2023-04-18T10:11:08.007Z,93.18
2023-04-18T10:12:08.008Z,92.80
2023-04-18T10:13:08.044Z,94.19
2023-04-18T10:14:08.023Z,90.94
2023-04-18T10:15:09.087Z,86.01
2023-04-18T10:16:08.032Z,58.33
2023-04-18T10:17:07.996Z,12.92
2023-04-18T10:18:08.007Z,0.00
2023-04-18T10:19:07.993Z,0.00
2023-04-18T10:20:08.006Z,9.33
2023-04-18T10:21:07.988Z,26.65
2023-04-18T10:22:09.677Z,31.93
2023-04-18T10:23:08.002Z,43.95
2023-04-18T10:24:07.997Z,56.52
2023-04-18T10:25:08.000Z,57.30
2023-04-18T10:26:08.019Z,61.73
2023-04-18T10:27:08.069Z,68.10
2023-04-18T10:28:08.011Z,73.77
2023-04-18T10:29:08.011Z,78.50
2023-04-18T10:30:09.086Z,78.65
2023-04-18T10:31:08.035Z,79.38
2023-04-18T10:32:08.020Z,80.10
2023-04-18T10:33:18.265Z,79.12
2023-04-18T10:34:09.003Z,79.29
2023-04-18T10:35:08.025Z,79.70
2023-04-18T10:36:08.011Z,81.15
2023-04-18T10:37:07.991Z,81.76
2023-04-18T10:38:07.983Z,86.36
2023-04-18T10:39:07.985Z,84.08
2023-04-18T10:40:08.033Z,86.11
2023-04-18T10:41:07.984Z,87.96
2023-04-18T10:42:07.976Z,87.89
2023-04-18T10:43:07.992Z,87.69
2023-04-18T10:44:08.758Z,90.69
2023-04-18T10:45:08.053Z,90.78
2023-04-18T10:46:14.366Z,90.68
2023-04-18T10:47:09.154Z,90.76
2023-04-18T10:48:08.176Z,91.16
2023-04-18T10:49:08.161Z,91.86
2023-04-18T10:50:08.116Z,94.04
2023-04-18T10:51:08.109Z,94.48
2023-04-18T10:52:08.110Z,94.83
2023-04-18T10:53:08.099Z,95.33
2023-04-18T10:54:08.103Z,97.02
2023-04-18T10:55:08.133Z,100.45
2023-04-18T10:56:08.279Z,99.74
2023-04-18T10:57:08.251Z,99.74
2023-04-18T10:58:08.286Z,99.77
2023-04-18T10:59:08.356Z,100.07
2023-04-18T11:00:08.424Z,101.30
2023-04-18T11:01:08.529Z,103.74
2023-04-18T11:02:08.593Z,102.28
2023-04-18T11:03:08.763Z,102.29
2023-04-18T11:04:08.800Z,103.74
2023-04-18T11:05:08.821Z,104.44
2023-04-18T11:06:08.817Z,107.02
2023-04-18T11:07:08.883Z,103.73
2023-04-18T11:08:08.930Z,107.03
2023-04-18T11:09:08.990Z,107.49
2023-04-18T11:10:09.013Z,106.80
2023-04-18T11:11:09.069Z,108.83
2023-04-18T11:12:09.081Z,109.78
2023-04-18T11:13:09.069Z,110.82
2023-04-18T11:14:09.097Z,112.11
2023-04-18T11:15:09.096Z,111.37
2023-04-18T11:16:09.114Z,112.12
2023-04-18T11:17:09.146Z,111.11
2023-04-18T11:18:09.277Z,113.69
2023-04-18T11:19:09.230Z,114.91
2023-04-18T11:20:09.346Z,114.22
2023-04-18T11:21:09.378Z,115.35
2023-04-18T11:22:09.411Z,115.28
2023-04-18T11:23:09.450Z,115.79
2023-04-18T11:24:09.503Z,115.85
2023-04-18T11:25:09.561Z,116.43
2023-04-18T11:26:09.621Z,118.03
2023-04-18T11:27:09.692Z,118.46
2023-04-18T11:28:09.729Z,118.12
2023-04-18T11:29:09.793Z,120.44
2023-04-18T11:30:09.871Z,119.08
2023-04-18T11:31:09.906Z,120.22
2023-04-18T11:32:09.954Z,121.54
2023-04-18T11:33:10.007Z,120.53
2023-04-18T11:34:09.978Z,121.63
2023-04-18T11:35:10.016Z,122.13
2023-04-18T11:36:10.005Z,121.45
2023-04-18T11:37:10.049Z,122.31
2023-04-18T11:38:10.006Z,122.39
2023-04-18T11:39:09.994Z,121.87
2023-04-18T11:40:09.989Z,122.78
2023-04-18T11:41:10.037Z,122.58
2023-04-18T11:42:10.066Z,123.03
2023-04-18T11:43:10.060Z,123.64
2023-04-18T11:44:10.085Z,125.05
2023-04-18T11:45:10.125Z,125.75
2023-04-18T11:46:10.138Z,124.12
2023-04-18T11:47:10.132Z,126.04
2023-04-18T11:48:10.174Z,124.50
2023-04-18T11:49:10.164Z,125.23
2023-04-18T11:50:10.164Z,126.89
2023-04-18T11:51:10.187Z,126.94
2023-04-18T11:52:10.184Z,125.28
2023-04-18T11:53:10.287Z,127.64
2023-04-18T11:54:10.240Z,127.41
2023-04-18T11:55:10.249Z,127.43
2023-04-18T11:56:10.233Z,126.43
2023-04-18T11:57:10.239Z,127.59
2023-04-18T11:58:10.242Z,127.57
2023-04-18T11:59:10.261Z,129.65
2023-04-18T12:00:10.334Z,127.61
2023-04-18T12:01:10.342Z,128.70
2023-04-18T12:03:13.299Z,129.05
2023-04-18T12:04:10.498Z,129.19
2023-04-18T12:05:10.544Z,129.37
2023-04-18T12:06:10.449Z,129.53
2023-04-18T12:07:10.337Z,129.44
2023-04-18T12:08:10.329Z,127.86
2023-04-18T12:09:10.324Z,129.87
2023-04-18T12:10:10.316Z,129.38
2023-04-18T12:11:10.325Z,129.05
2023-04-18T12:12:10.319Z,127.78
2023-04-18T12:13:10.313Z,129.52
2023-04-18T12:14:10.312Z,128.86
2023-04-18T12:15:10.314Z,128.18
2023-04-18T12:16:10.336Z,129.46
2023-04-18T12:17:10.319Z,127.97
2023-04-18T12:18:10.314Z,129.91
2023-04-18T12:19:10.311Z,126.81
2023-04-18T12:20:10.308Z,130.12
2023-04-18T12:21:10.318Z,128.40
2023-04-18T12:22:10.352Z,130.32
2023-04-18T12:23:10.315Z,131.06
2023-04-18T12:24:10.330Z,129.53
2023-04-18T12:25:10.321Z,129.72
2023-04-18T12:26:10.321Z,129.41
2023-04-18T12:27:10.303Z,129.51
2023-04-18T12:28:10.313Z,129.29
2023-04-18T12:29:10.297Z,129.74
2023-04-18T12:30:10.287Z,129.01
2023-04-18T12:31:10.310Z,129.50
2023-04-18T12:32:10.288Z,130.20
2023-04-18T12:33:10.286Z,128.49
2023-04-18T12:34:10.291Z,128.96
2023-04-18T12:35:10.291Z,129.11
2023-04-18T12:36:10.296Z,129.87
2023-04-18T12:37:10.285Z,128.62
2023-04-18T12:38:10.277Z,128.83
2023-04-18T12:39:10.282Z,128.23
2023-04-18T12:40:10.262Z,129.08
2023-04-18T12:41:10.345Z,127.00
2023-04-18T12:42:10.363Z,129.03
2023-04-18T12:43:10.273Z,128.98